Time;durP1;ratioP1;P1;durP2;ratioP2;P2;SDS_P1;SDS_P2;PMS_P1;PMS_P2;Temp;Humidity;BMP_temperature;BMP_pressure;BME280_temperature;BME280_humidity;BME280_pressure;Samples;Min_cycle;Max_cycle;Signal;HPM_P1;HPM_P2
2023/10/23 05:46:58;;;;;;;3.13;2.13;;;;;;;;;;10600893;27;20449;-85
2023/10/23 05:51:59;;;;;;;;;;;;;;;;;;10588784;28;20087;-86
2023/10/23 05:57:15;;;;;;;3.97;2.17;;;;;;;;;;10554173;22;19927;-82
2023/10/23 06:02:34;;;;;;;3.28;1.98;;;;;;;;;;10498451;28;20036;-82
2023/10/23 06:07:55;;;;;;;3.70;2.65;;;;;;;;;;10499364;28;20396;-83
2023/10/23 06:13:16;;;;;;;2.65;1.77;;;;;;;;;;10498929;28;20163;-82
2023/10/23 06:18:37;;;;;;;3.47;1.90;;;;;;;;;;10498946;28;20100;-82
2023/10/23 06:23:52;;;;;;;2.80;1.80;;;;;;;;;;10497889;28;20056;-82
2023/10/23 06:29:17;;;;;;;3.10;2.20;;;;;;;;;;10516258;28;20255;-82
2023/10/23 06:40:15;;;;;;;3.30;2.17;;;;;;;;;;10532943;28;20024;-82
2023/10/23 06:45:42;;;;;;;4.43;2.83;;;;;;;;;;10521897;28;20090;-82
2023/10/23 06:51:24;;;;;;;4.13;2.00;;;;;;;;;;10521125;28;20028;-82
2023/10/23 07:01:58;;;;;;;2.30;1.73;;;;;;;;;;10375400;28;20497;-83
2023/10/23 07:29:56;;;;;;;3.63;2.40;;;;;;;;;;10528297;28;20017;-84
2023/10/23 08:09:42;;;;;;;4.95;2.72;;;;;;;;;;10521166;28;20021;-83
2023/10/23 08:15:18;;;;;;;5.07;2.78;;;;;;;;;;10508460;28;20404;-83
2023/10/23 08:21:06;;;;;;;5.32;2.60;;;;;;;;;;10518341;28;20032;-83
2023/10/23 09:11:51;;;;;;;4.88;3.25;;;;;;;;;;10306273;28;20030;-84
2023/10/23 09:17:27;;;;;;;10.85;4.70;;;;;;;;;;10433670;28;20070;-83
2023/10/23 09:40:01;;;;;;;4.70;2.80;;;;;;;;;;10514723;28;20095;-84
2023/10/23 09:57:04;;;;;;;6.32;2.72;;;;;;;;;;10517809;28;20067;-84
2023/10/23 10:02:29;;;;;;;4.47;3.13;;;;;;;;;;10301098;28;20062;-85
2023/10/23 10:08:12;;;;;;;5.95;3.45;;;;;;;;;;10231501;28;20094;-83
2023/10/23 10:13:38;;;;;;;7.00;5.13;;;;;;;;;;10468873;28;20056;-82
2023/10/23 10:18:46;;;;;;;5.88;3.00;;;;;;;;;;10508553;28;20422;-82
2023/10/23 10:23:51;;;;;;;5.75;3.55;;;;;;;;;;10509825;28;20033;-82
2023/10/23 10:28:53;;;;;;;9.45;3.28;;;;;;;;;;10490988;28;20033;-82
2023/10/23 10:34:30;;;;;;;5.82;2.65;;;;;;;;;;10514866;28;20028;-83
2023/10/23 10:40:10;;;;;;;6.60;2.30;;;;;;;;;;10502931;28;20060;-83
2023/10/23 10:45:14;;;;;;;4.18;2.20;;;;;;;;;;10514645;28;20029;-84
2023/10/23 10:50:40;;;;;;;4.72;3.28;;;;;;;;;;10512594;28;20031;-84
2023/10/23 10:56:08;;;;;;;6.22;2.92;;;;;;;;;;10363037;28;20037;-84
2023/10/23 11:01:22;;;;;;;6.75;3.50;;;;;;;;;;10402515;28;20168;-82
2023/10/23 11:06:24;;;;;;;7.82;4.13;;;;;;;;;;10406771;28;20065;-82
2023/10/23 11:11:26;;;;;;;6.10;2.80;;;;;;;;;;10423799;28;20040;-82
2023/10/23 11:16:28;;;;;;;7.78;5.75;;;;;;;;;;10513232;28;20100;-82
2023/10/23 11:21:29;;;;;;;3.88;2.67;;;;;;;;;;10509170;28;20028;-82
2023/10/23 11:26:30;;;;;;;5.75;2.70;;;;;;;;;;10504713;28;20047;-81
2023/10/23 11:31:31;;;;;;;4.40;2.40;;;;;;;;;;10506915;28;20044;-83
2023/10/23 11:36:32;;;;;;;5.15;2.63;;;;;;;;;;10504516;28;20025;-83
2023/10/23 11:41:33;;;;;;;4.85;2.58;;;;;;;;;;10505337;28;20104;-83
2023/10/23 11:46:35;;;;;;;9.73;6.75;;;;;;;;;;10507893;28;20062;-84
2023/10/23 11:51:36;;;;;;;4.38;3.10;;;;;;;;;;10513193;28;20028;-83
2023/10/23 11:56:37;;;;;;;4.57;2.42;;;;;;;;;;10517057;28;20040;-85
2023/10/23 12:01:39;;;;;;;3.72;2.50;;;;;;;;;;10536285;28;20032;-87
2023/10/23 12:06:43;;;;;;;4.65;2.40;;;;;;;;;;10515039;28;20052;-85
2023/10/23 12:11:44;;;;;;;4.80;2.15;;;;;;;;;;10520322;28;20028;-86
2023/10/23 12:16:46;;;;;;;6.30;3.05;;;;;;;;;;10496630;28;20032;-86
2023/10/23 12:21:47;;;;;;;3.78;2.45;;;;;;;;;;10500907;28;20021;-84
2023/10/23 12:26:48;;;;;;;4.88;2.50;;;;;;;;;;10493502;28;20032;-86
2023/10/23 12:31:49;;;;;;;7.50;2.70;;;;;;;;;;10494940;28;20431;-86
2023/10/23 12:36:50;;;;;;;6.38;2.38;;;;;;;;;;10493504;28;20056;-87
2023/10/23 12:41:51;;;;;;;4.68;2.38;;;;;;;;;;10493695;28;20021;-88
2023/10/23 12:46:52;;;;;;;4.18;2.75;;;;;;;;;;10493491;28;20060;-87
2023/10/23 12:51:53;;;;;;;5.60;2.75;;;;;;;;;;10495050;28;20118;-86
2023/10/23 12:56:57;;;;;;;7.70;5.22;;;;;;;;;;10493469;28;20115;-86
2023/10/23 13:01:58;;;;;;;4.50;2.75;;;;;;;;;;10497183;28;20020;-86
2023/10/23 13:06:59;;;;;;;4.93;2.63;;;;;;;;;;10495388;28;20079;-87
2023/10/23 13:12:00;;;;;;;4.80;3.00;;;;;;;;;;10494543;28;20400;-85
2023/10/23 13:17:01;;;;;;;5.18;4.00;;;;;;;;;;10495875;28;20115;-85
2023/10/23 13:22:04;;;;;;;5.20;3.00;;;;;;;;;;10510182;28;20067;-84
2023/10/23 13:27:05;;;;;;;3.78;3.10;;;;;;;;;;10492474;28;20024;-87
2023/10/23 13:32:06;;;;;;;3.78;2.40;;;;;;;;;;10508639;28;20032;-86
2023/10/23 13:37:08;;;;;;;4.70;2.30;;;;;;;;;;10490474;28;20035;-86
2023/10/23 13:42:09;;;;;;;3.15;2.10;;;;;;;;;;10492602;28;20092;-85
2023/10/23 13:47:10;;;;;;;2.85;1.90;;;;;;;;;;10494356;28;20504;-85
2023/10/23 13:52:11;;;;;;;4.10;2.40;;;;;;;;;;10493343;28;20071;-86
2023/10/23 13:57:13;;;;;;;4.10;2.03;;;;;;;;;;10511410;28;20514;-87
2023/10/23 14:02:14;;;;;;;4.28;1.90;;;;;;;;;;10508063;28;20032;-86
2023/10/23 14:07:15;;;;;;;3.97;2.08;;;;;;;;;;10499755;28;20028;-86
2023/10/23 14:12:17;;;;;;;3.40;2.65;;;;;;;;;;10500865;28;20496;-86
2023/10/23 14:17:18;;;;;;;4.40;2.13;;;;;;;;;;10498933;28;20071;-85
2023/10/23 14:22:19;;;;;;;5.22;3.83;;;;;;;;;;10499468;28;20121;-86
2023/10/23 14:27:20;;;;;;;6.05;2.88;;;;;;;;;;10502169;28;20029;-87
2023/10/23 14:32:21;;;;;;;4.88;3.15;;;;;;;;;;10499428;28;20433;-87
2023/10/23 14:37:22;;;;;;;5.35;3.50;;;;;;;;;;10496705;28;20052;-86
2023/10/23 14:42:23;;;;;;;3.70;2.72;;;;;;;;;;10515713;28;20021;-86
2023/10/23 14:47:24;;;;;;;6.28;3.33;;;;;;;;;;10497443;28;20082;-86
2023/10/23 14:52:26;;;;;;;3.42;2.50;;;;;;;;;;10522018;28;20105;-87
2023/10/23 14:57:27;;;;;;;5.18;4.15;;;;;;;;;;10494362;28;20051;-85
2023/10/23 15:02:28;;;;;;;5.75;3.35;;;;;;;;;;10496122;28;20025;-86
2023/10/23 15:07:29;;;;;;;5.40;2.53;;;;;;;;;;10513081;28;20151;-86
2023/10/23 15:12:30;;;;;;;6.38;2.55;;;;;;;;;;10497911;28;20119;-86
2023/10/23 15:17:33;;;;;;;6.55;3.33;;;;;;;;;;10499697;28;20045;-86
2023/10/23 15:22:34;;;;;;;4.22;3.15;;;;;;;;;;10495989;28;20052;-86
2023/10/23 15:27:35;;;;;;;5.88;3.72;;;;;;;;;;10515508;28;20550;-88
2023/10/23 15:32:36;;;;;;;4.60;3.10;;;;;;;;;;10494245;28;20036;-87
2023/10/23 15:37:37;;;;;;;4.45;2.97;;;;;;;;;;10519598;28;20441;-89
2023/10/23 15:42:41;;;;;;;6.55;3.78;;;;;;;;;;10498143;28;20052;-87
2023/10/23 15:47:42;;;;;;;5.13;3.88;;;;;;;;;;10500605;28;20047;-89
2023/10/23 15:52:43;;;;;;;4.35;2.80;;;;;;;;;;10511497;28;20041;-88
2023/10/23 15:57:44;;;;;;;4.50;3.00;;;;;;;;;;10504873;28;20080;-88
2023/10/23 16:02:45;;;;;;;5.93;3.88;;;;;;;;;;10531419;28;20031;-87
2023/10/23 16:07:46;;;;;;;4.85;3.30;;;;;;;;;;10519231;28;20079;-86
2023/10/23 16:12:47;;;;;;;3.78;2.83;;;;;;;;;;10502746;28;20040;-88
2023/10/23 16:17:48;;;;;;;5.18;2.80;;;;;;;;;;10492497;28;20031;-88
2023/10/23 16:22:49;;;;;;;5.32;2.30;;;;;;;;;;10495771;28;20463;-86
2023/10/23 16:27:52;;;;;;;5.15;2.88;;;;;;;;;;10491153;28;20067;-86
2023/10/23 16:32:53;;;;;;;3.83;2.53;;;;;;;;;;10490495;28;20106;-88
2023/10/23 16:37:55;;;;;;;7.68;5.13;;;;;;;;;;10492303;28;20056;-88
2023/10/23 16:42:56;;;;;;;8.13;4.63;;;;;;;;;;10507967;28;20021;-89
2023/10/23 16:47:57;;;;;;;6.03;4.20;;;;;;;;;;10489208;28;20064;-89
2023/10/23 16:53:02;;;;;;;7.03;5.30;;;;;;;;;;10489261;28;20079;-90
2023/10/23 16:58:04;;;;;;;4.47;3.47;;;;;;;;;;10489893;28;20028;-89
2023/10/23 17:03:05;;;;;;;6.32;3.15;;;;;;;;;;10489380;28;20032;-90
2023/10/23 17:08:06;;;;;;;3.78;2.90;;;;;;;;;;10488206;28;20028;-89
2023/10/23 17:13:08;;;;;;;3.20;2.63;;;;;;;;;;10492808;28;20056;-89
2023/10/23 17:18:09;;;;;;;3.70;2.53;;;;;;;;;;10489273;28;20028;-89
2023/10/23 17:23:10;;;;;;;3.95;2.40;;;;;;;;;;10488373;28;20553;-89
2023/10/23 17:28:11;;;;;;;7.50;4.10;;;;;;;;;;10488413;28;20027;-89
2023/10/23 17:33:12;;;;;;;4.15;2.45;;;;;;;;;;10507120;28;20055;-89
2023/10/23 17:38:13;;;;;;;5.13;2.35;;;;;;;;;;10490410;28;20020;-89
2023/10/23 17:43:15;;;;;;;4.22;2.40;;;;;;;;;;10494209;28;20036;-89
2023/10/23 17:48:17;;;;;;;4.32;2.53;;;;;;;;;;10504054;28;20021;-89
2023/10/23 17:53:18;;;;;;;2.67;2.10;;;;;;;;;;10485781;28;20051;-89
2023/10/23 17:58:19;;;;;;;4.80;2.78;;;;;;;;;;10547783;22;20084;-86
2023/10/23 18:03:33;;;;;;;5.72;2.25;;;;;;;;;;10524298;28;20032;-86
2023/10/23 18:08:36;;;;;;;2.78;2.00;;;;;;;;;;10562927;28;20031;-86
2023/10/23 18:13:58;;;;;;;4.28;2.35;;;;;;;;;;10567534;28;20208;-86
2023/10/23 18:19:01;;;;;;;3.30;2.00;;;;;;;;;;10565466;28;20051;-87
2023/10/23 18:24:04;;;;;;;2.35;1.80;;;;;;;;;;10567937;28;20054;-87
2023/10/23 18:29:20;;;;;;;5.00;3.25;;;;;;;;;;10585812;28;20107;-87
2023/10/23 18:34:21;;;;;;;3.75;2.55;;;;;;;;;;10571913;28;20028;-87
2023/10/23 18:39:22;;;;;;;3.95;1.98;;;;;;;;;;10571002;28;20027;-87
2023/10/23 18:44:25;;;;;;;3.67;2.08;;;;;;;;;;10566910;28;20019;-87
2023/10/23 18:49:34;;;;;;;4.63;2.35;;;;;;;;;;10586003;28;20028;-88
2023/10/23 18:54:35;;;;;;;10.32;7.68;;;;;;;;;;10573843;28;20031;-87
2023/10/23 18:59:36;;;;;;;4.20;2.65;;;;;;;;;;10573428;28;20091;-88
2023/10/23 19:04:37;;;;;;;3.72;2.30;;;;;;;;;;10571883;28;20122;-87
2023/10/23 19:09:38;;;;;;;4.47;2.50;;;;;;;;;;10571858;28;20371;-88
